SNJ102 ROAH-RJFF
Flight info
| Callsign | SNJ102 |
|---|---|
| Flight time | 1h 31m |
| Altitude | 35000 |
| Route | AMAMI Y25 ISKUP |
| Aircraft | B738/M-SDE2E3FGHIRWXY/LB1 |
Departure
| Time | 2026-04-25 06:51 |
|---|---|
| Airport | Naha International Airport (ROAH) |
Arrival
| Time | 2026-04-25 08:23 |
|---|---|
| Airport | Fukuoka Airport (RJFF) |
| Time | Latitude | Longitude | Altitude | Speed | Heading |
|---|---|---|---|---|---|
| 2026-04-25 06:31 | 26.20710 | 127.64994 | 23 ft | 0 kts | 27° |
| 2026-04-25 06:38 | 26.20708 | 127.64992 | 21 ft | 3 kts | 27° |
| 2026-04-25 06:38 | 26.20684 | 127.64978 | 21 ft | 4 kts | 25° |
| 2026-04-25 06:38 | 26.20662 | 127.64967 | 23 ft | 2 kts | 24° |
| 2026-04-25 06:39 | 26.20639 | 127.64960 | 21 ft | 4 kts | 350° |
| 2026-04-25 06:39 | 26.20614 | 127.64970 | 22 ft | 3 kts | 335° |
| 2026-04-25 06:39 | 26.20611 | 127.64972 | 22 ft | 1 kts | 336° |
| 2026-04-25 06:41 | 26.20627 | 127.64955 | 20 ft | 9 kts | 304° |
| 2026-04-25 06:41 | 26.20635 | 127.64905 | 22 ft | 10 kts | 269° |
| 2026-04-25 06:41 | 26.20633 | 127.64848 | 19 ft | 0 kts | 268° |
| 2026-04-25 06:41 | 26.20633 | 127.64834 | 19 ft | 0 kts | 268° |
| 2026-04-25 06:42 | 26.20632 | 127.64816 | 18 ft | 10 kts | 261° |
| 2026-04-25 06:42 | 26.20543 | 127.64749 | 16 ft | 20 kts | 180° |
| 2026-04-25 06:42 | 26.20415 | 127.64755 | 17 ft | 17 kts | 178° |
| 2026-04-25 06:42 | 26.20299 | 127.64759 | 16 ft | 19 kts | 179° |
| 2026-04-25 06:43 | 26.20182 | 127.64765 | 16 ft | 16 kts | 177° |
| 2026-04-25 06:43 | 26.20001 | 127.64775 | 19 ft | 31 kts | 178° |
| 2026-04-25 06:43 | 26.19830 | 127.64782 | 17 ft | 18 kts | 178° |
| 2026-04-25 06:43 | 26.19709 | 127.64789 | 16 ft | 19 kts | 177° |
| 2026-04-25 06:44 | 26.19593 | 127.64792 | 16 ft | 14 kts | 178° |
| 2026-04-25 06:44 | 26.19486 | 127.64798 | 16 ft | 18 kts | 180° |
| 2026-04-25 06:44 | 26.19313 | 127.64806 | 16 ft | 33 kts | 176° |
| 2026-04-25 06:44 | 26.19085 | 127.64818 | 16 ft | 28 kts | 178° |
| 2026-04-25 06:45 | 26.18902 | 127.64825 | 16 ft | 21 kts | 177° |
| 2026-04-25 06:45 | 26.18741 | 127.64833 | 16 ft | 25 kts | 178° |
| 2026-04-25 06:45 | 26.18599 | 127.64839 | 17 ft | 12 kts | 177° |
| 2026-04-25 06:45 | 26.18532 | 127.64844 | 15 ft | 15 kts | 176° |
| 2026-04-25 06:46 | 26.18372 | 127.64851 | 16 ft | 31 kts | 175° |
| 2026-04-25 06:46 | 26.18242 | 127.64767 | 15 ft | 16 kts | 268° |
| 2026-04-25 06:46 | 26.18242 | 127.64760 | 15 ft | 2 kts | 269° |
| 2026-04-25 06:46 | 26.18242 | 127.64750 | 15 ft | 0 kts | 269° |
| 2026-04-25 06:48 | 26.18242 | 127.64749 | 15 ft | 2 kts | 269° |
| 2026-04-25 06:48 | 26.18242 | 127.64665 | 14 ft | 15 kts | 281° |
| 2026-04-25 06:49 | 26.18265 | 127.64650 | 15 ft | 1 kts | 355° |
| 2026-04-25 06:49 | 26.18273 | 127.64650 | 15 ft | 1 kts | 356° |
| 2026-04-25 06:50 | 26.18276 | 127.64650 | 15 ft | 6 kts | 356° |
| 2026-04-25 06:51 | 26.18551 | 127.64636 | 16 ft | 85 kts | 357° |
| 2026-04-25 06:51 | 26.19423 | 127.64588 | 45 ft | 161 kts | 356° |
| 2026-04-25 06:51 | 26.20622 | 127.64513 | 669 ft | 187 kts | 356° |
| 2026-04-25 06:51 | 26.21927 | 127.64452 | 1761 ft | 186 kts | 357° |
| 2026-04-25 06:52 | 26.23279 | 127.64403 | 2584 ft | 206 kts | 356° |
| 2026-04-25 06:52 | 26.24279 | 127.64368 | 2802 ft | 229 kts | 356° |
| 2026-04-25 06:52 | 26.24758 | 127.64351 | 2951 ft | 235 kts | 355° |
| 2026-04-25 06:52 | 26.26412 | 127.63925 | 3471 ft | 254 kts | 329° |
| 2026-04-25 06:53 | 26.27957 | 127.62901 | 4451 ft | 262 kts | 326° |
| 2026-04-25 06:53 | 26.29532 | 127.61866 | 5721 ft | 264 kts | 326° |
| 2026-04-25 06:53 | 26.31123 | 127.60834 | 6841 ft | 268 kts | 326° |
| 2026-04-25 06:53 | 26.32760 | 127.59782 | 7702 ft | 274 kts | 325° |
| 2026-04-25 06:54 | 26.34439 | 127.58709 | 8550 ft | 281 kts | 324° |
| 2026-04-25 06:54 | 26.36130 | 127.57633 | 9472 ft | 285 kts | 324° |
| 2026-04-25 06:54 | 26.37867 | 127.56531 | 10327 ft | 289 kts | 324° |
| 2026-04-25 06:54 | 26.39614 | 127.55302 | 10645 ft | 306 kts | 312° |
| 2026-04-25 06:55 | 26.40845 | 127.53339 | 10833 ft | 315 kts | 286° |
| 2026-04-25 06:55 | 26.41137 | 127.50932 | 11313 ft | 318 kts | 262° |
| 2026-04-25 06:55 | 26.40411 | 127.48596 | 11988 ft | 321 kts | 238° |
| 2026-04-25 06:55 | 26.39003 | 127.46641 | 12752 ft | 325 kts | 230° |
| 2026-04-25 06:56 | 26.37488 | 127.44750 | 13441 ft | 329 kts | 230° |
| 2026-04-25 06:56 | 26.35921 | 127.42876 | 14113 ft | 334 kts | 224° |
| 2026-04-25 06:56 | 26.33908 | 127.41514 | 14832 ft | 342 kts | 207° |
| 2026-04-25 06:56 | 26.31621 | 127.40858 | 15524 ft | 352 kts | 191° |
| 2026-04-25 06:57 | 26.29127 | 127.40798 | 16166 ft | 359 kts | 186° |
| 2026-04-25 06:57 | 26.26616 | 127.40858 | 16827 ft | 364 kts | 185° |
| 2026-04-25 06:57 | 26.24073 | 127.40934 | 17451 ft | 367 kts | 186° |
| 2026-04-25 06:57 | 26.21497 | 127.40989 | 18029 ft | 370 kts | 186° |
| 2026-04-25 06:58 | 26.18895 | 127.41023 | 18446 ft | 378 kts | 186° |
| 2026-04-25 06:58 | 26.16259 | 127.41073 | 18963 ft | 382 kts | 182° |
| 2026-04-25 06:58 | 26.13619 | 127.41817 | 19543 ft | 399 kts | 161° |
| 2026-04-25 06:58 | 26.11269 | 127.43589 | 20052 ft | 418 kts | 142° |
| 2026-04-25 06:59 | 26.09510 | 127.46230 | 20495 ft | 438 kts | 121° |
| 2026-04-25 06:59 | 26.08674 | 127.49541 | 20919 ft | 453 kts | 97° |
| 2026-04-25 06:59 | 26.08927 | 127.53073 | 21404 ft | 461 kts | 80° |
| 2026-04-25 06:59 | 26.09581 | 127.56541 | 21833 ft | 466 kts | 78° |
| 2026-04-25 07:00 | 26.10307 | 127.60081 | 22220 ft | 472 kts | 78° |
| 2026-04-25 07:00 | 26.11040 | 127.63678 | 22641 ft | 477 kts | 78° |
| 2026-04-25 07:00 | 26.11748 | 127.67292 | 23079 ft | 480 kts | 79° |
| 2026-04-25 07:00 | 26.12438 | 127.70953 | 23499 ft | 484 kts | 79° |
| 2026-04-25 07:01 | 26.13116 | 127.74648 | 23780 ft | 489 kts | 80° |
| 2026-04-25 07:01 | 26.13791 | 127.78380 | 24137 ft | 492 kts | 80° |
| 2026-04-25 07:01 | 26.14462 | 127.82101 | 24503 ft | 494 kts | 80° |
| 2026-04-25 07:01 | 26.15133 | 127.85817 | 24845 ft | 495 kts | 81° |
| 2026-04-25 07:02 | 26.15818 | 127.89598 | 25177 ft | 498 kts | 80° |
| 2026-04-25 07:02 | 26.16883 | 127.93270 | 25434 ft | 503 kts | 62° |
| 2026-04-25 07:02 | 26.18852 | 127.96496 | 25750 ft | 502 kts | 45° |
| 2026-04-25 07:02 | 26.21457 | 127.99052 | 26089 ft | 495 kts | 28° |
| 2026-04-25 07:03 | 26.24385 | 128.01072 | 26393 ft | 495 kts | 25° |
| 2026-04-25 07:03 | 26.27365 | 128.03015 | 26647 ft | 498 kts | 25° |
| 2026-04-25 07:03 | 26.30381 | 128.04962 | 26865 ft | 504 kts | 25° |
| 2026-04-25 07:03 | 26.33410 | 128.06939 | 27138 ft | 507 kts | 26° |
| 2026-04-25 07:04 | 26.36420 | 128.08937 | 27482 ft | 508 kts | 26° |
| 2026-04-25 07:04 | 26.39471 | 128.10990 | 27790 ft | 510 kts | 26° |
| 2026-04-25 07:04 | 26.42524 | 128.13059 | 28072 ft | 514 kts | 26° |
| 2026-04-25 07:04 | 26.45586 | 128.15141 | 28418 ft | 517 kts | 27° |
| 2026-04-25 07:05 | 26.48634 | 128.17216 | 28774 ft | 521 kts | 27° |
| 2026-04-25 07:05 | 26.51741 | 128.19329 | 28949 ft | 525 kts | 26° |
| 2026-04-25 07:05 | 26.54869 | 128.21457 | 29207 ft | 526 kts | 26° |
| 2026-04-25 07:05 | 26.58002 | 128.23589 | 29487 ft | 528 kts | 26° |
| 2026-04-25 07:06 | 26.61140 | 128.25725 | 29747 ft | 530 kts | 26° |
| 2026-04-25 07:06 | 26.64294 | 128.27873 | 29998 ft | 532 kts | 26° |
| 2026-04-25 07:06 | 26.67455 | 128.30054 | 30313 ft | 534 kts | 30° |
| 2026-04-25 07:06 | 26.70295 | 128.32758 | 30551 ft | 543 kts | 47° |
| 2026-04-25 07:07 | 26.72634 | 128.36032 | 30857 ft | 543 kts | 51° |
| 2026-04-25 07:07 | 26.74923 | 128.39413 | 31155 ft | 543 kts | 52° |
| 2026-04-25 07:07 | 26.77216 | 128.42799 | 31398 ft | 545 kts | 52° |
| 2026-04-25 07:07 | 26.79533 | 128.46161 | 31646 ft | 545 kts | 51° |
| 2026-04-25 07:08 | 26.81881 | 128.49505 | 31932 ft | 545 kts | 51° |
| 2026-04-25 07:08 | 26.84214 | 128.52791 | 32250 ft | 545 kts | 51° |
| 2026-04-25 07:08 | 26.86594 | 128.56132 | 32406 ft | 549 kts | 51° |
| 2026-04-25 07:08 | 26.88984 | 128.59494 | 32585 ft | 551 kts | 51° |
| 2026-04-25 07:09 | 26.91372 | 128.62862 | 32898 ft | 550 kts | 50° |
| 2026-04-25 07:09 | 26.94021 | 128.65955 | 33167 ft | 547 kts | 34° |
| 2026-04-25 07:09 | 26.97207 | 128.68201 | 33494 ft | 538 kts | 24° |
| 2026-04-25 07:09 | 27.00465 | 128.70135 | 33792 ft | 537 kts | 22° |
| 2026-04-25 07:10 | 27.03844 | 128.72094 | 33945 ft | 541 kts | 22° |
| 2026-04-25 07:10 | 27.07151 | 128.74014 | 34134 ft | 542 kts | 23° |
| 2026-04-25 07:10 | 27.10497 | 128.75984 | 34467 ft | 539 kts | 23° |
| 2026-04-25 07:10 | 27.13801 | 128.77960 | 34853 ft | 536 kts | 23° |
| 2026-04-25 07:11 | 27.17082 | 128.79943 | 35038 ft | 537 kts | 24° |
| 2026-04-25 07:11 | 27.23634 | 128.83932 | 35043 ft | 539 kts | 24° |
| 2026-04-25 07:12 | 27.30214 | 128.87952 | 35030 ft | 533 kts | 23° |
| 2026-04-25 07:12 | 27.39933 | 128.93888 | 35013 ft | 530 kts | 23° |
| 2026-04-25 07:13 | 27.46430 | 128.97856 | 35032 ft | 529 kts | 23° |
| 2026-04-25 07:13 | 27.52898 | 129.01813 | 35029 ft | 530 kts | 23° |
| 2026-04-25 07:14 | 27.59402 | 129.05798 | 35024 ft | 531 kts | 23° |
| 2026-04-25 07:14 | 27.65857 | 129.09758 | 35023 ft | 532 kts | 23° |
| 2026-04-25 07:15 | 27.72379 | 129.13766 | 35003 ft | 533 kts | 24° |
| 2026-04-25 07:15 | 27.78871 | 129.17761 | 35017 ft | 534 kts | 24° |
| 2026-04-25 07:16 | 27.85438 | 129.21807 | 35032 ft | 536 kts | 23° |
| 2026-04-25 07:16 | 27.91959 | 129.25831 | 35023 ft | 538 kts | 24° |
| 2026-04-25 07:17 | 27.98533 | 129.29893 | 35036 ft | 538 kts | 24° |
| 2026-04-25 07:17 | 28.05130 | 129.33975 | 35027 ft | 539 kts | 23° |
| 2026-04-25 07:18 | 28.11716 | 129.38057 | 35014 ft | 539 kts | 24° |
| 2026-04-25 07:18 | 28.18261 | 129.42118 | 35048 ft | 538 kts | 23° |
| 2026-04-25 07:19 | 28.24851 | 129.46201 | 35013 ft | 536 kts | 23° |
| 2026-04-25 07:19 | 28.31381 | 129.50275 | 34988 ft | 535 kts | 23° |
| 2026-04-25 07:20 | 28.37901 | 129.54344 | 34994 ft | 534 kts | 22° |
| 2026-04-25 07:20 | 28.44480 | 129.58265 | 34932 ft | 526 kts | 12° |
| 2026-04-25 07:21 | 28.47927 | 129.59194 | 34993 ft | 506 kts | 358° |
| 2026-04-25 07:21 | 28.51440 | 129.59697 | 34993 ft | 510 kts | 356° |
| 2026-04-25 07:21 | 28.58555 | 129.60620 | 35016 ft | 517 kts | 356° |
| 2026-04-25 07:22 | 28.64522 | 129.61465 | 34996 ft | 519 kts | 357° |
| 2026-04-25 07:22 | 28.72838 | 129.62736 | 35001 ft | 519 kts | 358° |
| 2026-04-25 07:23 | 28.78812 | 129.63664 | 35037 ft | 518 kts | 358° |
| 2026-04-25 07:23 | 28.85957 | 129.64769 | 35022 ft | 515 kts | 357° |
| 2026-04-25 07:24 | 28.93018 | 129.65857 | 35010 ft | 512 kts | 357° |
| 2026-04-25 07:24 | 29.00070 | 129.66943 | 35043 ft | 509 kts | 357° |
| 2026-04-25 07:25 | 29.07086 | 129.68025 | 35018 ft | 507 kts | 357° |
| 2026-04-25 07:25 | 29.14034 | 129.69098 | 35015 ft | 505 kts | 357° |
| 2026-04-25 07:26 | 29.21011 | 129.70148 | 35050 ft | 504 kts | 356° |
| 2026-04-25 07:26 | 29.27981 | 129.71185 | 35026 ft | 504 kts | 356° |
| 2026-04-25 07:27 | 29.34949 | 129.72231 | 35024 ft | 505 kts | 356° |
| 2026-04-25 07:27 | 29.41874 | 129.73289 | 35020 ft | 506 kts | 356° |
| 2026-04-25 07:28 | 29.48879 | 129.74376 | 35026 ft | 508 kts | 357° |
| 2026-04-25 07:28 | 29.55902 | 129.75468 | 35025 ft | 508 kts | 357° |
| 2026-04-25 07:29 | 29.62885 | 129.76552 | 35026 ft | 509 kts | 357° |
| 2026-04-25 07:29 | 29.69919 | 129.77645 | 35025 ft | 510 kts | 357° |
| 2026-04-25 07:30 | 29.76982 | 129.78744 | 35023 ft | 510 kts | 357° |
| 2026-04-25 07:30 | 29.83969 | 129.79833 | 35021 ft | 510 kts | 357° |
| 2026-04-25 07:31 | 29.91034 | 129.80941 | 35002 ft | 510 kts | 357° |
| 2026-04-25 07:31 | 29.98073 | 129.82037 | 35028 ft | 510 kts | 357° |
| 2026-04-25 07:32 | 30.05069 | 129.83019 | 35061 ft | 505 kts | 354° |
| 2026-04-25 07:32 | 30.12074 | 129.83723 | 35032 ft | 504 kts | 354° |
| 2026-04-25 07:33 | 30.19045 | 129.84430 | 35032 ft | 505 kts | 354° |
| 2026-04-25 07:33 | 30.26038 | 129.85191 | 35023 ft | 504 kts | 355° |
| 2026-04-25 07:34 | 30.33044 | 129.85963 | 35033 ft | 504 kts | 354° |
| 2026-04-25 07:34 | 30.39969 | 129.86720 | 35028 ft | 503 kts | 354° |
| 2026-04-25 07:35 | 30.46958 | 129.87482 | 35033 ft | 502 kts | 354° |
| 2026-04-25 07:35 | 30.53928 | 129.88243 | 35036 ft | 502 kts | 354° |
| 2026-04-25 07:36 | 30.60861 | 129.89002 | 35036 ft | 502 kts | 354° |
| 2026-04-25 07:36 | 30.67780 | 129.89761 | 35035 ft | 501 kts | 354° |
| 2026-04-25 07:37 | 30.74754 | 129.90527 | 35045 ft | 502 kts | 353° |
| 2026-04-25 07:37 | 30.81705 | 129.91292 | 35043 ft | 502 kts | 353° |
| 2026-04-25 07:38 | 30.88677 | 129.92059 | 35043 ft | 502 kts | 353° |
| 2026-04-25 07:38 | 30.95611 | 129.92820 | 35054 ft | 502 kts | 353° |
| 2026-04-25 07:39 | 31.02592 | 129.93590 | 35047 ft | 502 kts | 353° |
| 2026-04-25 07:39 | 31.09523 | 129.94355 | 35069 ft | 502 kts | 353° |
| 2026-04-25 07:40 | 31.16507 | 129.95127 | 35052 ft | 503 kts | 353° |
| 2026-04-25 07:40 | 31.23452 | 129.95896 | 35048 ft | 503 kts | 353° |
| 2026-04-25 07:41 | 31.30433 | 129.96659 | 35094 ft | 502 kts | 351° |
| 2026-04-25 07:41 | 31.37357 | 129.97230 | 35062 ft | 501 kts | 350° |
| 2026-04-25 07:42 | 31.44327 | 129.97735 | 35052 ft | 501 kts | 350° |
| 2026-04-25 07:42 | 31.51292 | 129.98262 | 35078 ft | 501 kts | 351° |
| 2026-04-25 07:43 | 31.58280 | 129.98811 | 35059 ft | 502 kts | 351° |
| 2026-04-25 07:43 | 31.65216 | 129.99364 | 35053 ft | 502 kts | 351° |
| 2026-04-25 07:44 | 31.72195 | 129.99919 | 35054 ft | 502 kts | 351° |
| 2026-04-25 07:44 | 31.79129 | 130.00470 | 35055 ft | 502 kts | 350° |
| 2026-04-25 07:45 | 31.82582 | 130.00751 | 35031 ft | 490 kts | 350° |
| 2026-04-25 07:45 | 31.85930 | 130.01033 | 35032 ft | 475 kts | 350° |
| 2026-04-25 07:45 | 31.89180 | 130.01301 | 35034 ft | 461 kts | 349° |
| 2026-04-25 07:45 | 31.92338 | 130.01554 | 35083 ft | 447 kts | 348° |
| 2026-04-25 07:46 | 31.95406 | 130.01793 | 35061 ft | 435 kts | 348° |
| 2026-04-25 07:46 | 31.98423 | 130.02022 | 35062 ft | 432 kts | 347° |
| 2026-04-25 07:46 | 32.04494 | 130.02476 | 35079 ft | 446 kts | 348° |
| 2026-04-25 07:47 | 32.10805 | 130.02967 | 35075 ft | 458 kts | 349° |
| 2026-04-25 07:47 | 32.17161 | 130.03488 | 35062 ft | 460 kts | 349° |
| 2026-04-25 07:48 | 32.23495 | 130.04021 | 35039 ft | 450 kts | 348° |
| 2026-04-25 07:48 | 32.26580 | 130.04283 | 34817 ft | 439 kts | 348° |
| 2026-04-25 07:48 | 32.29585 | 130.04533 | 34425 ft | 432 kts | 348° |
| 2026-04-25 07:49 | 32.32589 | 130.04769 | 33660 ft | 436 kts | 348° |
| 2026-04-25 07:49 | 32.35675 | 130.04990 | 32328 ft | 453 kts | 350° |
| 2026-04-25 07:49 | 32.38876 | 130.05216 | 31234 ft | 465 kts | 352° |
| 2026-04-25 07:49 | 32.42095 | 130.05481 | 30618 ft | 461 kts | 353° |
| 2026-04-25 07:50 | 32.45260 | 130.05758 | 30191 ft | 451 kts | 353° |
| 2026-04-25 07:50 | 32.48374 | 130.06026 | 29637 ft | 443 kts | 353° |
| 2026-04-25 07:50 | 32.51390 | 130.06274 | 29001 ft | 437 kts | 353° |
| 2026-04-25 07:50 | 32.54417 | 130.06516 | 28391 ft | 431 kts | 354° |
| 2026-04-25 07:51 | 32.57386 | 130.06756 | 27855 ft | 424 kts | 354° |
| 2026-04-25 07:51 | 32.60300 | 130.06876 | 27223 ft | 411 kts | 347° |
| 2026-04-25 07:51 | 32.63080 | 130.06463 | 26572 ft | 395 kts | 337° |
| 2026-04-25 07:51 | 32.65743 | 130.05763 | 25954 ft | 390 kts | 337° |
| 2026-04-25 07:52 | 32.68350 | 130.05056 | 25347 ft | 386 kts | 337° |
| 2026-04-25 07:52 | 32.70961 | 130.04357 | 24765 ft | 383 kts | 338° |
| 2026-04-25 07:52 | 32.73553 | 130.03679 | 24205 ft | 379 kts | 338° |
| 2026-04-25 07:52 | 32.76120 | 130.03018 | 23691 ft | 376 kts | 339° |
| 2026-04-25 07:53 | 32.78660 | 130.02359 | 23075 ft | 371 kts | 340° |
| 2026-04-25 07:53 | 32.81184 | 130.01719 | 22394 ft | 369 kts | 341° |
| 2026-04-25 07:53 | 32.83681 | 130.01093 | 21931 ft | 361 kts | 341° |
| 2026-04-25 07:53 | 32.86091 | 130.00490 | 21532 ft | 353 kts | 341° |
| 2026-04-25 07:54 | 32.88467 | 129.99893 | 21165 ft | 344 kts | 341° |
| 2026-04-25 07:54 | 32.90794 | 129.99306 | 20813 ft | 336 kts | 341° |
| 2026-04-25 07:54 | 32.93065 | 129.98730 | 20477 ft | 331 kts | 341° |
| 2026-04-25 07:54 | 32.95300 | 129.98162 | 20149 ft | 327 kts | 341° |
| 2026-04-25 07:55 | 32.97543 | 129.97588 | 19839 ft | 332 kts | 342° |
| 2026-04-25 07:55 | 32.99821 | 129.97001 | 19510 ft | 348 kts | 342° |
| 2026-04-25 07:55 | 33.02212 | 129.96390 | 19141 ft | 348 kts | 342° |
| 2026-04-25 07:55 | 33.04555 | 129.95798 | 18781 ft | 340 kts | 343° |
| 2026-04-25 07:56 | 33.06852 | 129.95219 | 18427 ft | 332 kts | 343° |
| 2026-04-25 07:56 | 33.09052 | 129.94661 | 18070 ft | 327 kts | 343° |
| 2026-04-25 07:56 | 33.11281 | 129.94092 | 17712 ft | 326 kts | 343° |
| 2026-04-25 07:56 | 33.13508 | 129.93524 | 17367 ft | 324 kts | 343° |
| 2026-04-25 07:57 | 33.15700 | 129.92965 | 17025 ft | 320 kts | 343° |
| 2026-04-25 07:57 | 33.17872 | 129.92411 | 16708 ft | 321 kts | 343° |
| 2026-04-25 07:57 | 33.20072 | 129.91846 | 16473 ft | 321 kts | 344° |
| 2026-04-25 07:57 | 33.22278 | 129.91273 | 16166 ft | 328 kts | 345° |
| 2026-04-25 07:58 | 33.24491 | 129.90699 | 15846 ft | 331 kts | 345° |
| 2026-04-25 07:58 | 33.26743 | 129.90114 | 15504 ft | 331 kts | 345° |
| 2026-04-25 07:58 | 33.28993 | 129.89533 | 15144 ft | 330 kts | 345° |
| 2026-04-25 07:58 | 33.31240 | 129.88952 | 14801 ft | 329 kts | 345° |
| 2026-04-25 07:59 | 33.33476 | 129.88373 | 14459 ft | 328 kts | 346° |
| 2026-04-25 07:59 | 33.35699 | 129.87797 | 14124 ft | 326 kts | 346° |
| 2026-04-25 07:59 | 33.37921 | 129.87220 | 13776 ft | 325 kts | 346° |
| 2026-04-25 07:59 | 33.40102 | 129.86654 | 13403 ft | 324 kts | 346° |
| 2026-04-25 08:00 | 33.42304 | 129.86082 | 13044 ft | 322 kts | 346° |
| 2026-04-25 08:00 | 33.44487 | 129.85517 | 12667 ft | 321 kts | 346° |
| 2026-04-25 08:00 | 33.46675 | 129.84953 | 12336 ft | 319 kts | 347° |
| 2026-04-25 08:00 | 33.48872 | 129.84877 | 11971 ft | 319 kts | 12° |
| 2026-04-25 08:01 | 33.50979 | 129.85577 | 11714 ft | 315 kts | 16° |
| 2026-04-25 08:01 | 33.53105 | 129.86355 | 11368 ft | 314 kts | 16° |
| 2026-04-25 08:01 | 33.55162 | 129.87114 | 11046 ft | 313 kts | 17° |
| 2026-04-25 08:01 | 33.57240 | 129.87876 | 10719 ft | 311 kts | 17° |
| 2026-04-25 08:02 | 33.59319 | 129.88633 | 10389 ft | 310 kts | 17° |
| 2026-04-25 08:02 | 33.61370 | 129.89374 | 10232 ft | 303 kts | 16° |
| 2026-04-25 08:02 | 33.63341 | 129.90084 | 10096 ft | 295 kts | 17° |
| 2026-04-25 08:02 | 33.65311 | 129.90793 | 9874 ft | 290 kts | 17° |
| 2026-04-25 08:03 | 33.67213 | 129.91476 | 9580 ft | 288 kts | 17° |
| 2026-04-25 08:03 | 33.69136 | 129.92167 | 9286 ft | 287 kts | 17° |
| 2026-04-25 08:03 | 33.71049 | 129.92854 | 9007 ft | 285 kts | 17° |
| 2026-04-25 08:03 | 33.72942 | 129.93534 | 8727 ft | 282 kts | 18° |
| 2026-04-25 08:04 | 33.74819 | 129.94209 | 8432 ft | 281 kts | 17° |
| 2026-04-25 08:04 | 33.76657 | 129.94870 | 8153 ft | 278 kts | 18° |
| 2026-04-25 08:04 | 33.78533 | 129.95449 | 8044 ft | 279 kts | 8° |
| 2026-04-25 08:04 | 33.80487 | 129.95628 | 8016 ft | 280 kts | 3° |
| 2026-04-25 08:05 | 33.82419 | 129.95728 | 7996 ft | 275 kts | 4° |
| 2026-04-25 08:05 | 33.84309 | 129.95846 | 7992 ft | 266 kts | 4° |
| 2026-04-25 08:05 | 33.86112 | 129.95977 | 7980 ft | 254 kts | 5° |
| 2026-04-25 08:05 | 33.87839 | 129.96172 | 7990 ft | 244 kts | 17° |
| 2026-04-25 08:06 | 33.89337 | 129.96961 | 8028 ft | 236 kts | 30° |
| 2026-04-25 08:06 | 33.90817 | 129.97889 | 8026 ft | 243 kts | 29° |
| 2026-04-25 08:06 | 33.92328 | 129.98808 | 8037 ft | 247 kts | 29° |
| 2026-04-25 08:06 | 33.93882 | 129.99740 | 8034 ft | 247 kts | 28° |
| 2026-04-25 08:07 | 33.95420 | 130.00656 | 8018 ft | 246 kts | 29° |
| 2026-04-25 08:07 | 33.96951 | 130.01568 | 8021 ft | 244 kts | 28° |
| 2026-04-25 08:07 | 33.98412 | 130.02579 | 8015 ft | 240 kts | 45° |
| 2026-04-25 08:07 | 33.99505 | 130.04065 | 8036 ft | 234 kts | 53° |
| 2026-04-25 08:08 | 34.00558 | 130.05563 | 8028 ft | 234 kts | 53° |
| 2026-04-25 08:08 | 34.01608 | 130.07029 | 8023 ft | 233 kts | 51° |
| 2026-04-25 08:08 | 34.02672 | 130.08504 | 8027 ft | 233 kts | 53° |
| 2026-04-25 08:08 | 34.03378 | 130.09480 | 8031 ft | 233 kts | 52° |
| 2026-04-25 08:09 | 34.04809 | 130.11455 | 8028 ft | 233 kts | 51° |
| 2026-04-25 08:09 | 34.05822 | 130.12968 | 8013 ft | 231 kts | 64° |
| 2026-04-25 08:09 | 34.06368 | 130.14757 | 8054 ft | 227 kts | 76° |
| 2026-04-25 08:09 | 34.06850 | 130.16564 | 8046 ft | 230 kts | 75° |
| 2026-04-25 08:10 | 34.07352 | 130.18396 | 7845 ft | 229 kts | 74° |
| 2026-04-25 08:10 | 34.07683 | 130.19599 | 7647 ft | 227 kts | 75° |
| 2026-04-25 08:10 | 34.08183 | 130.21403 | 7264 ft | 227 kts | 74° |
| 2026-04-25 08:10 | 34.08852 | 130.23814 | 6807 ft | 224 kts | 75° |
| 2026-04-25 08:11 | 34.09185 | 130.25017 | 6590 ft | 223 kts | 75° |
| 2026-04-25 08:11 | 34.09476 | 130.26816 | 6243 ft | 216 kts | 95° |
| 2026-04-25 08:11 | 34.09339 | 130.28613 | 5875 ft | 215 kts | 97° |
| 2026-04-25 08:11 | 34.09223 | 130.30376 | 5534 ft | 213 kts | 96° |
| 2026-04-25 08:12 | 34.09113 | 130.32153 | 5199 ft | 212 kts | 96° |
| 2026-04-25 08:12 | 34.08976 | 130.33888 | 4909 ft | 206 kts | 106° |
| 2026-04-25 08:12 | 34.08161 | 130.35237 | 4675 ft | 200 kts | 148° |
| 2026-04-25 08:12 | 34.06837 | 130.35803 | 4593 ft | 209 kts | 170° |
| 2026-04-25 08:13 | 34.05340 | 130.35726 | 4329 ft | 220 kts | 185° |
| 2026-04-25 08:13 | 34.03813 | 130.35413 | 4068 ft | 223 kts | 186° |
| 2026-04-25 08:13 | 34.02296 | 130.35091 | 3780 ft | 221 kts | 186° |
| 2026-04-25 08:14 | 33.99329 | 130.34465 | 3208 ft | 216 kts | 186° |
| 2026-04-25 08:14 | 33.97835 | 130.34156 | 2937 ft | 219 kts | 186° |
| 2026-04-25 08:14 | 33.96322 | 130.33845 | 2673 ft | 220 kts | 186° |
| 2026-04-25 08:14 | 33.94806 | 130.33535 | 2397 ft | 220 kts | 186° |
| 2026-04-25 08:15 | 33.93302 | 130.33228 | 2120 ft | 219 kts | 185° |
| 2026-04-25 08:15 | 33.91800 | 130.32923 | 2044 ft | 219 kts | 185° |
| 2026-04-25 08:15 | 33.90306 | 130.32622 | 2015 ft | 221 kts | 185° |
| 2026-04-25 08:15 | 33.88799 | 130.32316 | 1995 ft | 217 kts | 185° |
| 2026-04-25 08:16 | 33.87298 | 130.32012 | 2001 ft | 219 kts | 185° |
| 2026-04-25 08:16 | 33.85791 | 130.31709 | 2022 ft | 220 kts | 186° |
| 2026-04-25 08:16 | 33.84268 | 130.31404 | 1999 ft | 223 kts | 187° |
| 2026-04-25 08:16 | 33.82756 | 130.31094 | 2015 ft | 221 kts | 187° |
| 2026-04-25 08:17 | 33.81249 | 130.30791 | 1987 ft | 217 kts | 187° |
| 2026-04-25 08:17 | 33.79776 | 130.30721 | 1979 ft | 209 kts | 161° |
| 2026-04-25 08:17 | 33.78464 | 130.31427 | 2028 ft | 208 kts | 152° |
| 2026-04-25 08:17 | 33.77180 | 130.32220 | 2017 ft | 207 kts | 148° |
| 2026-04-25 08:18 | 33.75926 | 130.33059 | 2020 ft | 203 kts | 148° |
| 2026-04-25 08:18 | 33.74760 | 130.33864 | 1980 ft | 182 kts | 148° |
| 2026-04-25 08:18 | 33.73702 | 130.34597 | 2026 ft | 172 kts | 147° |
| 2026-04-25 08:18 | 33.72657 | 130.35322 | 1984 ft | 170 kts | 148° |
| 2026-04-25 08:19 | 33.71673 | 130.36003 | 1981 ft | 162 kts | 146° |
| 2026-04-25 08:19 | 33.70716 | 130.36666 | 1993 ft | 155 kts | 146° |
| 2026-04-25 08:19 | 33.69784 | 130.37314 | 2020 ft | 155 kts | 146° |
| 2026-04-25 08:19 | 33.68843 | 130.37964 | 1999 ft | 154 kts | 147° |
| 2026-04-25 08:20 | 33.67885 | 130.38629 | 1871 ft | 164 kts | 148° |
| 2026-04-25 08:20 | 33.66886 | 130.39319 | 1691 ft | 162 kts | 147° |
| 2026-04-25 08:20 | 33.65900 | 130.40006 | 1441 ft | 162 kts | 147° |
| 2026-04-25 08:20 | 33.64933 | 130.40672 | 1289 ft | 158 kts | 146° |
| 2026-04-25 08:21 | 33.63978 | 130.41338 | 1029 ft | 156 kts | 149° |
| 2026-04-25 08:21 | 33.63068 | 130.41968 | 824 ft | 147 kts | 151° |
| 2026-04-25 08:21 | 33.62185 | 130.42578 | 661 ft | 148 kts | 151° |
| 2026-04-25 08:21 | 33.61294 | 130.43201 | 464 ft | 150 kts | 155° |
| 2026-04-25 08:22 | 33.60401 | 130.43816 | 244 ft | 148 kts | 153° |
| 2026-04-25 08:22 | 33.59546 | 130.44423 | 82 ft | 140 kts | 153° |
| 2026-04-25 08:22 | 33.58716 | 130.45010 | 44 ft | 131 kts | 154° |
| 2026-04-25 08:22 | 33.58018 | 130.45467 | 37 ft | 91 kts | 158° |
| 2026-04-25 08:23 | 33.57597 | 130.45754 | 40 ft | 31 kts | 147° |
| 2026-04-25 08:23 | 33.57528 | 130.45836 | 43 ft | 11 kts | 75° |
| 2026-04-25 08:23 | 33.57566 | 130.45929 | 43 ft | 14 kts | 47° |
| 2026-04-25 08:23 | 33.57659 | 130.45923 | 43 ft | 16 kts | 339° |
| 2026-04-25 08:24 | 33.57794 | 130.45829 | 41 ft | 29 kts | 335° |
| 2026-04-25 08:24 | 33.58012 | 130.45692 | 35 ft | 41 kts | 329° |
| 2026-04-25 08:24 | 33.58293 | 130.45499 | 32 ft | 52 kts | 333° |
| 2026-04-25 08:24 | 33.58577 | 130.45303 | 28 ft | 45 kts | 331° |
| 2026-04-25 08:25 | 33.58823 | 130.45136 | 28 ft | 38 kts | 330° |
| 2026-04-25 08:25 | 33.59051 | 130.45002 | 28 ft | 29 kts | 334° |
| 2026-04-25 08:25 | 33.59212 | 130.44876 | 25 ft | 27 kts | 327° |
| 2026-04-25 08:25 | 33.59358 | 130.44850 | 25 ft | 16 kts | 358° |
| 2026-04-25 08:26 | 33.59408 | 130.44851 | 26 ft | 4 kts | 39° |
| 2026-04-25 08:26 | 33.59423 | 130.44878 | 25 ft | 4 kts | 61° |
| 2026-04-25 08:26 | 33.59440 | 130.44915 | 28 ft | 4 kts | 61° |
| 2026-04-25 08:26 | 33.59447 | 130.44930 | 27 ft | 0 kts | 60° |